Terminal Aerodrome Forecast
Issued by NWS

Home | Current Version | Previous Version | Graphics & Text | Print | Product List | Glossary On
Versions: 1 2 3 4 5 6 7 8 9 10 11 12 13
000
FTUS45 KGGW 241120
TAFGDV
TAF
KGDV 241120Z 2412/2512 35011KT P6SM -SHRA OVC006
     FM241800 32017G25KT 6SM SHRA OVC009
     FM250000 31018G28KT P6SM VCSH BKN025
     FM250900 30017G25KT P6SM SCT100=

USA.gov is the U.S. government's official web portal to all federal, state and local government web resources and services.